createdAt,value
2022-12-26T00:01:07.761Z,13.77
2022-12-26T00:03:34.847Z,12.10
2022-12-26T00:06:02.308Z,14.10
2022-12-26T00:08:29.386Z,14.48
2022-12-26T00:10:56.592Z,14.90
2022-12-26T00:13:39.998Z,17.25
2022-12-26T00:16:11.074Z,14.45
2022-12-26T00:18:39.811Z,15.80
2022-12-26T00:21:08.906Z,14.93
2022-12-26T00:23:36.878Z,15.32
2022-12-26T00:26:13.572Z,15.60
2022-12-26T00:28:41.804Z,16.85
2022-12-26T00:31:17.200Z,17.60
2022-12-26T00:33:44.354Z,18.73
2022-12-26T00:36:14.157Z,18.27
2022-12-26T00:38:42.764Z,17.65
2022-12-26T00:41:11.980Z,17.08
2022-12-26T00:43:39.166Z,18.33
2022-12-26T00:46:07.987Z,18.58
2022-12-26T00:48:35.278Z,18.52
2022-12-26T00:51:03.019Z,19.98
2022-12-26T00:53:30.408Z,18.88
2022-12-26T00:55:57.666Z,18.20
2022-12-26T00:58:25.389Z,17.80
2022-12-26T01:00:52.881Z,17.13
2022-12-26T01:03:20.157Z,18.02
2022-12-26T01:05:49.957Z,16.23
2022-12-26T01:08:19.816Z,17.40
2022-12-26T01:10:51.086Z,16.20
2022-12-26T01:13:18.253Z,17.38
2022-12-26T01:15:52.667Z,15.02
2022-12-26T01:18:20.591Z,13.90
2022-12-26T01:20:48.929Z,14.40
2022-12-26T01:23:17.093Z,16.17
2022-12-26T01:26:18.652Z,14.77
2022-12-26T01:28:31.744Z,14.73
2022-12-26T01:31:03.908Z,14.43
2022-12-26T01:33:31.824Z,13.95
2022-12-26T01:35:59.346Z,16.92
2022-12-26T01:38:26.527Z,16.83
2022-12-26T01:41:13.744Z,16.10
2022-12-26T01:43:59.104Z,16.92
2022-12-26T01:46:32.377Z,16.75
2022-12-26T01:49:07.259Z,18.90
2022-12-26T01:51:39.562Z,16.58
2022-12-26T01:54:40.606Z,17.38
2022-12-26T01:56:58.306Z,17.42
2022-12-26T01:59:28.566Z,18.50
2022-12-26T02:01:55.952Z,20.13
2022-12-26T02:04:47.483Z,19.38
2022-12-26T02:07:14.647Z,21.33
2022-12-26T02:09:42.833Z,20.73
2022-12-26T02:12:38.429Z,22.70
2022-12-26T02:15:17.098Z,22.33
2022-12-26T02:17:44.359Z,22.73
2022-12-26T02:20:22.506Z,23.92
2022-12-26T02:23:08.097Z,24.10
2022-12-26T02:26:10.947Z,23.42
2022-12-26T02:29:10.705Z,23.00
2022-12-26T02:32:11.414Z,22.17
2022-12-26T02:35:23.504Z,23.20
2022-12-26T02:38:16.686Z,22.20
2022-12-26T02:41:03.595Z,22.08
2022-12-26T02:44:35.259Z,23.10
2022-12-26T02:47:43.794Z,22.85
2022-12-26T02:50:35.383Z,22.45
2022-12-26T02:53:52.225Z,22.95
2022-12-26T02:56:45.144Z,22.23
2022-12-26T02:59:57.001Z,23.38
2022-12-26T03:02:53.444Z,22.08
2022-12-26T03:05:49.162Z,22.08
2022-12-26T03:08:43.103Z,24.48
2022-12-26T03:11:28.872Z,23.77
2022-12-26T03:14:08.198Z,22.85
2022-12-26T03:17:08.287Z,23.13
2022-12-26T03:19:58.095Z,23.88
2022-12-26T03:22:52.774Z,25.77
2022-12-26T03:25:54.115Z,23.45
2022-12-26T03:28:22.565Z,22.80
2022-12-26T03:30:49.907Z,22.58
2022-12-26T03:33:38.218Z,23.20
2022-12-26T03:36:07.297Z,23.15
2022-12-26T03:38:56.092Z,20.83
2022-12-26T03:41:55.623Z,23.38
2022-12-26T03:45:08.393Z,24.42
2022-12-26T03:48:11.849Z,24.88
2022-12-26T03:51:04.199Z,23.15
2022-12-26T03:53:56.781Z,22.55
2022-12-26T03:56:54.653Z,22.80
2022-12-26T03:59:49.279Z,21.23
2022-12-26T04:02:36.889Z,22.83
2022-12-26T04:05:23.821Z,21.63
2022-12-26T04:08:18.597Z,21.70
2022-12-26T04:11:16.454Z,21.02
2022-12-26T04:14:25.417Z,20.75
2022-12-26T04:17:19.381Z,19.92
2022-12-26T04:20:08.053Z,19.85
2022-12-26T04:23:07.579Z,19.58
2022-12-26T04:26:08.346Z,18.92
2022-12-26T04:28:54.352Z,18.25
2022-12-26T04:31:51.548Z,19.85
2022-12-26T04:35:14.298Z,19.00
2022-12-26T04:38:03.555Z,17.45
2022-12-26T04:40:53.046Z,16.85
2022-12-26T04:43:50.391Z,16.60
2022-12-26T04:46:21.058Z,16.60
2022-12-26T04:49:09.428Z,17.05
2022-12-26T04:51:36.861Z,16.20
2022-12-26T04:54:05.564Z,16.00
2022-12-26T04:56:32.966Z,17.30
2022-12-26T04:59:00.080Z,16.30
2022-12-26T05:01:46.170Z,16.10
2022-12-26T05:04:33.203Z,16.35
2022-12-26T05:07:20.492Z,16.60
2022-12-26T05:09:53.321Z,16.98
2022-12-26T05:12:20.981Z,18.67
2022-12-26T05:14:48.261Z,16.80
2022-12-26T05:17:34.058Z,18.55
2022-12-26T05:20:19.759Z,18.25
2022-12-26T05:23:06.045Z,18.92
2022-12-26T05:25:56.623Z,18.67
2022-12-26T05:28:42.517Z,18.88
2022-12-26T05:31:17.486Z,20.48
2022-12-26T05:34:03.605Z,18.50
2022-12-26T05:36:37.389Z,18.77
2022-12-26T05:41:32.185Z,17.70
2022-12-26T05:43:59.397Z,19.17
2022-12-26T05:46:26.766Z,19.00
2022-12-26T05:48:53.967Z,15.95
2022-12-26T05:51:21.049Z,17.58
2022-12-26T05:53:48.643Z,16.45
2022-12-26T05:56:17.653Z,17.10
2022-12-26T05:58:45.643Z,16.02
2022-12-26T06:01:16.574Z,14.98
2022-12-26T06:03:47.649Z,14.65
2022-12-26T06:06:15.423Z,14.18
2022-12-26T06:08:43.162Z,15.13
2022-12-26T06:11:13.638Z,14.15
2022-12-26T06:13:42.026Z,14.07
2022-12-26T06:16:12.985Z,13.10
2022-12-26T06:18:40.874Z,12.90
2022-12-26T06:21:11.961Z,11.93
2022-12-26T06:23:39.483Z,11.93
2022-12-26T06:26:10.361Z,11.43
2022-12-26T06:28:40.187Z,11.20
2022-12-26T06:31:12.048Z,10.25
2022-12-26T06:33:39.099Z,11.40
2022-12-26T06:36:09.765Z,10.43
2022-12-26T06:38:38.173Z,9.55
2022-12-26T06:41:07.640Z,10.23
2022-12-26T06:43:35.015Z,9.48
2022-12-26T06:46:03.604Z,8.82
2022-12-26T06:48:31.524Z,9.20
2022-12-26T06:50:58.635Z,9.52
2022-12-26T06:53:25.782Z,9.32
2022-12-26T06:55:53.089Z,8.82
2022-12-26T06:58:20.108Z,8.80
2022-12-26T07:00:47.304Z,9.52
2022-12-26T07:03:14.468Z,9.48
2022-12-26T07:05:41.993Z,8.02
2022-12-26T07:08:09.144Z,8.23
2022-12-26T07:10:37.549Z,8.60
2022-12-26T07:13:04.597Z,8.25
2022-12-26T07:15:31.816Z,8.23
2022-12-26T07:17:58.974Z,7.65
2022-12-26T07:20:26.071Z,7.75
2022-12-26T07:22:55.233Z,8.23
2022-12-26T07:25:22.387Z,8.05
2022-12-26T07:27:53.478Z,7.15
2022-12-26T07:30:20.932Z,7.25
2022-12-26T07:32:47.969Z,6.95
2022-12-26T07:35:15.214Z,6.70
2022-12-26T07:37:42.292Z,7.40
2022-12-26T07:40:09.929Z,7.32
2022-12-26T07:42:37.824Z,6.85
2022-12-26T07:45:05.259Z,6.35
2022-12-26T07:47:32.279Z,6.97
2022-12-26T07:49:59.357Z,5.63
2022-12-26T07:52:26.954Z,6.13
2022-12-26T07:54:54.035Z,5.60
2022-12-26T07:57:50.245Z,6.07
2022-12-26T08:00:08.935Z,5.47
2022-12-26T08:02:36.765Z,6.00
2022-12-26T08:05:04.156Z,5.82
2022-12-26T08:07:31.256Z,5.18
2022-12-26T08:09:58.305Z,6.10
2022-12-26T08:12:26.790Z,5.90
2022-12-26T08:14:53.961Z,6.03
2022-12-26T08:17:21.286Z,5.80
2022-12-26T08:19:48.429Z,4.53
2022-12-26T08:22:15.751Z,4.18
2022-12-26T08:24:42.982Z,4.68
2022-12-26T08:27:10.908Z,4.50
2022-12-26T08:29:38.018Z,4.30
2022-12-26T08:32:07.110Z,4.22
2022-12-26T08:34:36.432Z,3.80
2022-12-26T08:37:03.653Z,3.65
2022-12-26T08:39:30.828Z,3.65
2022-12-26T08:41:57.854Z,3.40
2022-12-26T08:44:27.489Z,3.28
2022-12-26T08:46:55.237Z,3.85
2022-12-26T08:49:22.352Z,3.40
2022-12-26T08:51:49.517Z,3.47
2022-12-26T08:54:16.617Z,2.97
2022-12-26T08:56:43.894Z,3.40
2022-12-26T08:59:11.119Z,3.05
2022-12-26T09:01:38.923Z,3.88
2022-12-26T09:04:07.567Z,3.45
2022-12-26T09:06:37.538Z,3.67
2022-12-26T09:09:08.407Z,2.83
2022-12-26T09:11:38.692Z,4.13
2022-12-26T09:14:07.985Z,3.35
2022-12-26T09:16:49.562Z,3.45
2022-12-26T09:19:18.646Z,3.88
2022-12-26T09:21:46.464Z,2.72
2022-12-26T09:24:16.571Z,2.22
2022-12-26T09:26:44.437Z,2.90
2022-12-26T09:29:12.725Z,2.47
2022-12-26T09:31:42.315Z,2.38
2022-12-26T09:34:09.419Z,2.03
2022-12-26T09:36:38.887Z,2.22
2022-12-26T09:39:08.343Z,1.70
2022-12-26T09:41:44.504Z,1.90
2022-12-26T09:44:14.213Z,2.45
2022-12-26T09:47:02.924Z,2.03
2022-12-26T09:49:37.822Z,2.42
2022-12-26T09:52:38.400Z,2.28
2022-12-26T09:55:24.044Z,1.92
2022-12-26T09:57:54.759Z,2.35
2022-12-26T10:00:28.312Z,2.90
2022-12-26T10:02:58.894Z,2.70
2022-12-26T10:05:38.486Z,2.38
2022-12-26T10:08:33.735Z,1.88
2022-12-26T10:11:07.641Z,2.30
2022-12-26T10:13:40.074Z,1.80
2022-12-26T10:16:18.658Z,1.52
2022-12-26T10:19:07.490Z,2.08
2022-12-26T10:21:52.530Z,2.63
2022-12-26T10:24:25.469Z,2.38
2022-12-26T10:27:14.597Z,2.22
2022-12-26T10:29:53.152Z,2.55
2022-12-26T10:32:43.641Z,1.63
2022-12-26T10:35:28.598Z,2.00
2022-12-26T10:37:59.893Z,2.70
2022-12-26T10:40:38.224Z,2.05
2022-12-26T10:43:26.421Z,1.52
2022-12-26T10:46:24.348Z,2.08
2022-12-26T10:48:51.555Z,1.58
2022-12-26T10:51:19.771Z,1.85
2022-12-26T10:53:51.387Z,2.13
2022-12-26T10:56:19.895Z,1.75
2022-12-26T10:58:58.528Z,1.95
2022-12-26T11:01:28.555Z,1.98
2022-12-26T11:04:00.942Z,1.00
2022-12-26T11:06:32.831Z,1.45
2022-12-26T11:09:00.431Z,1.08
2022-12-26T11:11:48.640Z,1.13
2022-12-26T11:14:38.222Z,1.25
2022-12-26T11:17:09.133Z,1.10
2022-12-26T11:19:42.158Z,1.63
2022-12-26T11:22:25.817Z,1.73
2022-12-26T11:25:08.208Z,1.15
2022-12-26T11:27:42.317Z,1.10
2022-12-26T11:30:19.720Z,1.48
2022-12-26T11:32:51.439Z,1.45
2022-12-26T11:35:18.643Z,1.92
2022-12-26T11:37:48.747Z,1.20
2022-12-26T11:40:24.924Z,1.48
2022-12-26T11:42:56.853Z,1.27
2022-12-26T11:45:27.347Z,1.48
2022-12-26T11:48:00.875Z,1.40
2022-12-26T11:50:30.822Z,1.23
2022-12-26T11:52:57.868Z,1.20
2022-12-26T11:55:39.237Z,1.20
2022-12-26T11:58:09.405Z,1.35
2022-12-26T12:00:42.252Z,2.30
2022-12-26T12:03:19.787Z,1.90
2022-12-26T12:06:00.507Z,2.30
2022-12-26T12:08:49.359Z,1.42
2022-12-26T12:11:27.568Z,1.77
2022-12-26T12:14:27.691Z,1.13
2022-12-26T12:17:07.036Z,1.20
2022-12-26T12:19:38.016Z,1.30
2022-12-26T12:22:19.747Z,1.20
2022-12-26T12:25:01.665Z,1.10
2022-12-26T12:27:43.435Z,1.15
2022-12-26T12:30:34.212Z,1.38
2022-12-26T12:33:32.423Z,1.40
2022-12-26T12:36:10.892Z,1.30
2022-12-26T12:39:02.448Z,1.40
2022-12-26T12:42:05.066Z,2.88
2022-12-26T12:45:08.860Z,1.30
2022-12-26T12:48:17.544Z,0.93
2022-12-26T12:50:56.768Z,1.70
2022-12-26T12:53:29.682Z,1.83
2022-12-26T12:56:34.699Z,1.00
2022-12-26T12:59:25.870Z,1.27
2022-12-26T13:02:07.035Z,1.27
2022-12-26T13:04:45.907Z,1.67
2022-12-26T13:07:23.384Z,0.80
2022-12-26T13:09:57.055Z,0.90
2022-12-26T13:12:35.019Z,1.30
2022-12-26T13:15:14.072Z,1.30
2022-12-26T13:17:51.901Z,1.73
2022-12-26T13:20:27.596Z,1.83
2022-12-26T13:23:24.664Z,1.27
2022-12-26T13:26:07.792Z,1.15
2022-12-26T13:28:45.848Z,0.43
2022-12-26T13:31:14.000Z,1.00
2022-12-26T13:33:43.191Z,1.38
2022-12-26T13:36:11.089Z,1.10
2022-12-26T13:38:56.259Z,0.95
2022-12-26T13:41:44.646Z,1.17
2022-12-26T13:44:20.620Z,1.08
2022-12-26T13:46:47.616Z,0.82
2022-12-26T13:49:29.559Z,1.05
2022-12-26T13:52:12.281Z,0.95
2022-12-26T13:55:08.273Z,1.08
2022-12-26T13:57:44.156Z,0.90
2022-12-26T14:00:23.504Z,1.15
2022-12-26T14:03:16.622Z,1.10
2022-12-26T14:06:15.210Z,1.70
2022-12-26T14:09:21.465Z,1.10
2022-12-26T14:11:59.690Z,1.35
2022-12-26T14:15:23.414Z,1.85
2022-12-26T14:18:15.229Z,1.30
2022-12-26T14:21:39.873Z,2.15
2022-12-26T14:24:12.778Z,1.23
2022-12-26T14:26:48.519Z,1.88
2022-12-26T14:29:25.340Z,2.08
2022-12-26T14:32:16.956Z,2.22
2022-12-26T14:35:04.851Z,2.40
2022-12-26T14:37:44.635Z,1.90
2022-12-26T14:40:36.540Z,2.40
2022-12-26T14:43:23.544Z,3.03
2022-12-26T14:45:53.227Z,2.72
2022-12-26T14:48:23.315Z,1.20
2022-12-26T14:50:50.473Z,6.07
2022-12-26T14:53:17.518Z,1.92
2022-12-26T14:55:47.593Z,1.85
2022-12-26T14:58:39.460Z,1.33
2022-12-26T15:01:09.453Z,1.40
2022-12-26T15:03:45.019Z,1.95
2022-12-26T15:06:20.990Z,1.95
2022-12-26T15:08:53.836Z,2.08
2022-12-26T15:11:50.753Z,2.25
2022-12-26T15:14:51.916Z,2.20
2022-12-26T15:17:37.740Z,3.92
2022-12-26T15:20:23.537Z,2.70
2022-12-26T15:23:18.786Z,3.15
2022-12-26T15:26:00.667Z,2.50
2022-12-26T15:28:56.594Z,2.83
2022-12-26T15:31:42.098Z,3.42
2022-12-26T15:34:18.576Z,4.47
2022-12-26T15:36:53.892Z,3.58
2022-12-26T15:39:26.642Z,3.60
2022-12-26T15:42:22.835Z,2.92
2022-12-26T15:45:15.738Z,3.13
2022-12-26T15:47:54.813Z,3.30
2022-12-26T15:50:52.248Z,4.10
2022-12-26T15:53:43.889Z,3.67
2022-12-26T15:56:39.831Z,3.45
2022-12-26T15:59:44.468Z,5.03
2022-12-26T16:04:52.135Z,4.18
2022-12-26T16:07:31.603Z,4.72
2022-12-26T16:09:59.008Z,4.70
2022-12-26T16:12:30.646Z,5.75
2022-12-26T16:15:09.584Z,4.50
2022-12-26T16:17:38.819Z,4.13
2022-12-26T16:20:48.027Z,5.18
2022-12-26T16:23:18.816Z,4.38
2022-12-26T16:26:04.182Z,4.40
2022-12-26T16:28:36.784Z,6.35
2022-12-26T16:31:04.830Z,6.05
2022-12-26T16:33:39.917Z,5.30
2022-12-26T16:36:09.221Z,4.70
2022-12-26T16:38:38.158Z,4.13
2022-12-26T16:41:25.500Z,7.70
2022-12-26T16:43:54.780Z,5.80
2022-12-26T16:46:26.346Z,4.60
2022-12-26T16:48:57.699Z,5.75
2022-12-26T16:51:46.010Z,7.07
2022-12-26T16:54:27.621Z,6.97
2022-12-26T16:57:19.645Z,7.07
2022-12-26T16:59:49.374Z,5.80
2022-12-26T17:02:30.902Z,6.32
2022-12-26T17:05:38.124Z,6.72
2022-12-26T17:08:05.532Z,6.00
2022-12-26T17:10:37.873Z,6.72
2022-12-26T17:13:08.021Z,5.32
2022-12-26T17:15:39.758Z,6.47
2022-12-26T17:18:37.957Z,5.53
2022-12-26T17:21:20.165Z,4.80
2022-12-26T17:24:04.182Z,5.45
2022-12-26T17:28:58.352Z,5.03
2022-12-26T17:31:44.124Z,3.95
2022-12-26T17:34:26.512Z,5.43
2022-12-26T17:39:42.609Z,6.13
2022-12-26T17:42:12.727Z,6.25
2022-12-26T17:44:43.742Z,3.72
2022-12-26T17:47:24.200Z,4.60
2022-12-26T17:49:52.860Z,4.97
2022-12-26T17:52:23.636Z,6.68
2022-12-26T17:54:52.065Z,6.72
2022-12-26T17:57:24.320Z,6.32
2022-12-26T17:59:53.017Z,6.05
2022-12-26T18:02:20.663Z,7.30
2022-12-26T18:04:48.991Z,5.43
2022-12-26T18:07:31.062Z,4.93
2022-12-26T18:10:00.246Z,4.47
2022-12-26T18:12:28.043Z,4.32
2022-12-26T18:15:01.363Z,4.57
2022-12-26T18:17:33.211Z,5.28
2022-12-26T18:20:01.727Z,4.43
2022-12-26T18:22:28.832Z,4.65
2022-12-26T18:24:55.913Z,3.88
2022-12-26T18:27:33.410Z,4.88
2022-12-26T18:30:00.793Z,5.50
2022-12-26T18:32:32.982Z,6.70
2022-12-26T18:35:00.677Z,8.88
2022-12-26T18:37:30.423Z,7.25
2022-12-26T18:39:57.567Z,8.35
2022-12-26T18:42:26.245Z,7.18
2022-12-26T18:44:53.486Z,7.55
2022-12-26T18:47:22.090Z,9.57
2022-12-26T18:49:49.584Z,8.07
2022-12-26T18:52:17.415Z,8.10
2022-12-26T18:54:45.647Z,6.38
2022-12-26T18:57:19.555Z,8.77
2022-12-26T18:59:48.214Z,6.35
2022-12-26T19:02:20.598Z,5.22
2022-12-26T19:04:48.866Z,7.38
2022-12-26T19:07:17.821Z,10.60
2022-12-26T19:09:47.292Z,23.50
2022-12-26T19:12:14.793Z,12.43
2022-12-26T19:14:44.709Z,9.30
2022-12-26T19:17:12.357Z,7.72
2022-12-26T19:19:39.559Z,7.88
2022-12-26T19:22:10.095Z,12.95
2022-12-26T19:24:38.010Z,15.18
2022-12-26T19:27:05.139Z,5.85
2022-12-26T19:29:32.476Z,3.10
2022-12-26T19:31:59.638Z,4.25
2022-12-26T19:34:26.828Z,4.47
2022-12-26T19:36:53.883Z,3.53
2022-12-26T19:39:21.273Z,4.18
2022-12-26T19:41:48.409Z,3.63
2022-12-26T19:44:15.550Z,4.72
2022-12-26T19:46:42.707Z,5.13
2022-12-26T19:49:09.733Z,3.75
2022-12-26T19:51:42.614Z,3.00
2022-12-26T19:54:09.711Z,3.03
2022-12-26T19:56:39.842Z,4.35
2022-12-26T19:59:07.829Z,3.40
2022-12-26T20:01:34.985Z,3.85
2022-12-26T20:04:04.066Z,3.20
2022-12-26T20:06:33.823Z,3.70
2022-12-26T20:09:08.696Z,3.47
2022-12-26T20:11:42.300Z,4.22
2022-12-26T20:14:13.585Z,4.95
2022-12-26T20:19:28.296Z,3.65
2022-12-26T20:21:55.609Z,3.17
2022-12-26T20:24:23.041Z,3.33
2022-12-26T20:26:50.328Z,4.07
2022-12-26T20:29:17.995Z,3.75
2022-12-26T20:31:45.882Z,3.10
2022-12-26T20:34:13.190Z,3.00
2022-12-26T20:36:42.144Z,2.63
2022-12-26T20:39:19.731Z,3.28
2022-12-26T20:41:47.070Z,2.17
2022-12-26T20:44:15.623Z,2.53
2022-12-26T20:46:43.846Z,2.67
2022-12-26T20:49:11.259Z,2.35
2022-12-26T20:51:41.133Z,1.98
2022-12-26T20:54:10.133Z,2.30
2022-12-26T20:56:38.424Z,2.10
2022-12-26T20:59:07.727Z,1.92
2022-12-26T21:01:35.480Z,2.47
2022-12-26T21:04:03.841Z,2.20
2022-12-26T21:06:34.103Z,1.88
2022-12-26T21:09:01.510Z,2.50
2022-12-26T21:11:29.616Z,2.60
2022-12-26T21:13:59.604Z,3.50
2022-12-26T21:16:39.353Z,2.65
2022-12-26T21:19:14.667Z,3.78
2022-12-26T21:21:45.532Z,4.20
2022-12-26T21:24:22.082Z,4.55
2022-12-26T21:26:49.906Z,4.35
2022-12-26T21:29:20.266Z,4.63
2022-12-26T21:31:48.379Z,3.58
2022-12-26T21:34:17.586Z,3.03
2022-12-26T21:37:03.577Z,3.40
2022-12-26T21:39:31.422Z,3.45
2022-12-26T21:41:58.952Z,5.40
2022-12-26T21:44:25.977Z,3.28
2022-12-26T21:46:53.212Z,3.88
2022-12-26T21:49:20.327Z,3.10
2022-12-26T21:51:47.372Z,3.05
2022-12-26T21:54:32.713Z,2.88
2022-12-26T21:56:59.754Z,1.85
2022-12-26T21:59:45.717Z,3.30
2022-12-26T22:02:33.029Z,2.90
2022-12-26T22:05:01.439Z,3.30
2022-12-26T22:07:28.867Z,2.72
2022-12-26T22:09:55.977Z,3.03
2022-12-26T22:12:42.334Z,2.83
2022-12-26T22:15:30.148Z,2.75
2022-12-26T22:17:57.565Z,2.45
2022-12-26T22:20:24.664Z,3.33
2022-12-26T22:22:51.998Z,2.83
2022-12-26T22:25:19.860Z,2.03
2022-12-26T22:27:46.944Z,2.63
2022-12-26T22:30:14.151Z,3.10
2022-12-26T22:32:41.336Z,3.63
2022-12-26T22:35:13.237Z,3.92
2022-12-26T22:37:43.612Z,2.17
2022-12-26T22:40:11.492Z,2.50
2022-12-26T22:42:38.660Z,2.03
2022-12-26T22:45:08.462Z,3.20
2022-12-26T22:47:35.568Z,2.85
2022-12-26T22:50:03.959Z,2.30
2022-12-26T22:52:30.988Z,2.45
2022-12-26T22:54:58.131Z,3.13
2022-12-26T22:57:25.259Z,3.03
2022-12-26T23:00:09.639Z,2.78
2022-12-26T23:02:38.180Z,2.63
2022-12-26T23:05:06.641Z,3.03
2022-12-26T23:07:33.969Z,2.67
2022-12-26T23:10:01.166Z,2.97
2022-12-26T23:12:43.753Z,2.72
2022-12-26T23:15:16.695Z,2.95
2022-12-26T23:18:24.384Z,3.33
2022-12-26T23:21:11.949Z,2.85
2022-12-26T23:23:39.453Z,2.85
2022-12-26T23:26:09.354Z,3.72
2022-12-26T23:29:12.033Z,3.13
2022-12-26T23:31:39.134Z,2.58
2022-12-26T23:34:06.840Z,2.83
2022-12-26T23:36:33.938Z,3.03
2022-12-26T23:39:01.089Z,3.40
2022-12-26T23:41:28.168Z,3.35
2022-12-26T23:43:55.261Z,2.65
2022-12-26T23:46:22.374Z,3.28
2022-12-26T23:48:49.527Z,3.38
2022-12-26T23:51:19.927Z,3.42
2022-12-26T23:53:46.940Z,2.80
2022-12-26T23:56:14.196Z,3.05
2022-12-26T23:58:42.241Z,3.25
